createdAt,value
2022-12-31T00:00:09.955Z,5.92
2022-12-31T00:02:37.223Z,6.00
2022-12-31T00:05:06.815Z,6.05
2022-12-31T00:10:02.457Z,6.07
2022-12-31T00:12:31.069Z,6.07
2022-12-31T00:14:59.859Z,6.05
2022-12-31T00:17:28.324Z,6.07
2022-12-31T00:19:55.419Z,6.10
2022-12-31T00:22:22.437Z,6.13
2022-12-31T00:24:49.441Z,6.15
2022-12-31T00:27:16.540Z,6.16
2022-12-31T00:29:43.629Z,6.18
2022-12-31T00:32:10.865Z,6.19
2022-12-31T00:34:37.930Z,6.21
2022-12-31T00:37:05.094Z,6.25
2022-12-31T00:39:32.152Z,6.31
2022-12-31T00:41:59.225Z,6.35
2022-12-31T00:44:26.320Z,6.36
2022-12-31T00:46:53.316Z,6.37
2022-12-31T00:49:20.355Z,6.42
2022-12-31T00:51:47.656Z,6.44
2022-12-31T00:54:15.157Z,6.47
2022-12-31T00:56:42.177Z,6.56
2022-12-31T00:59:09.204Z,6.55
2022-12-31T01:01:39.002Z,6.55
2022-12-31T01:04:10.403Z,6.55
2022-12-31T01:06:37.947Z,6.52
2022-12-31T01:09:06.354Z,6.51
2022-12-31T01:11:33.657Z,6.49
2022-12-31T01:14:09.914Z,6.46
2022-12-31T01:16:52.623Z,6.46
2022-12-31T01:19:28.112Z,6.42
2022-12-31T01:21:56.148Z,6.40
2022-12-31T01:24:23.471Z,6.39
2022-12-31T01:26:51.499Z,6.35
2022-12-31T01:29:18.565Z,6.32
2022-12-31T01:31:45.602Z,6.25
2022-12-31T01:34:12.722Z,6.08
2022-12-31T01:36:39.885Z,5.92
2022-12-31T01:39:08.879Z,5.82
2022-12-31T01:41:39.152Z,5.73
2022-12-31T01:44:52.507Z,5.67
2022-12-31T01:47:28.229Z,5.58
2022-12-31T01:50:02.691Z,5.55
2022-12-31T01:52:37.736Z,5.56
2022-12-31T01:55:44.878Z,5.58
2022-12-31T01:58:19.615Z,5.56
2022-12-31T02:00:47.661Z,5.52
2022-12-31T02:03:15.015Z,5.45
2022-12-31T02:06:09.322Z,5.41
2022-12-31T02:08:41.978Z,5.37
2022-12-31T02:11:29.320Z,5.35
2022-12-31T02:14:00.905Z,5.31
2022-12-31T02:16:40.306Z,5.32
2022-12-31T02:20:18.267Z,5.33
2022-12-31T02:23:16.279Z,5.35
2022-12-31T02:26:30.325Z,5.34
2022-12-31T02:29:34.945Z,5.33
2022-12-31T02:32:08.287Z,5.32
2022-12-31T02:34:45.122Z,5.31
2022-12-31T02:37:16.284Z,5.32
2022-12-31T02:39:44.521Z,5.35
2022-12-31T02:42:12.169Z,5.32
2022-12-31T02:44:41.391Z,5.31
2022-12-31T02:47:34.990Z,5.46
2022-12-31T02:50:42.930Z,5.39
2022-12-31T02:53:48.420Z,5.31
2022-12-31T02:56:36.551Z,5.24
2022-12-31T02:59:29.737Z,5.23
2022-12-31T03:02:16.145Z,5.19
2022-12-31T03:04:47.976Z,5.10
2022-12-31T03:07:20.607Z,5.02
2022-12-31T03:09:47.590Z,4.99
2022-12-31T03:12:48.338Z,4.99
2022-12-31T03:15:34.651Z,4.96
2022-12-31T03:18:13.885Z,4.93
2022-12-31T03:21:06.126Z,4.91
2022-12-31T03:23:39.304Z,4.91
2022-12-31T03:26:12.373Z,4.95
2022-12-31T03:28:42.769Z,4.94
2022-12-31T03:31:09.976Z,4.95
2022-12-31T03:33:39.490Z,4.99
2022-12-31T03:36:09.900Z,5.00
2022-12-31T03:38:37.260Z,5.04
2022-12-31T03:41:04.595Z,4.92
2022-12-31T03:43:31.588Z,4.78
2022-12-31T03:46:00.033Z,4.70
2022-12-31T03:48:27.432Z,4.67
2022-12-31T03:50:54.645Z,4.57
2022-12-31T03:53:21.772Z,4.51
2022-12-31T03:55:53.300Z,4.43
2022-12-31T03:58:21.843Z,4.33
2022-12-31T04:00:49.526Z,4.27
2022-12-31T04:03:16.720Z,4.24
2022-12-31T04:05:43.936Z,4.25
2022-12-31T04:08:10.938Z,4.19
2022-12-31T04:10:37.943Z,4.12
2022-12-31T04:13:05.061Z,4.15
2022-12-31T04:15:32.247Z,4.17
2022-12-31T04:17:59.286Z,4.19
2022-12-31T04:20:26.442Z,4.19
2022-12-31T04:22:53.420Z,4.19
2022-12-31T04:25:20.435Z,4.19
2022-12-31T04:27:47.920Z,4.25
2022-12-31T04:30:15.143Z,4.31
2022-12-31T04:32:42.261Z,4.33
2022-12-31T04:35:10.717Z,4.31
2022-12-31T04:37:37.941Z,4.25
2022-12-31T04:40:08.640Z,4.27
2022-12-31T04:42:36.108Z,4.25
2022-12-31T04:45:03.312Z,4.17
2022-12-31T04:47:30.364Z,4.13
2022-12-31T04:49:57.316Z,4.12
2022-12-31T04:52:24.423Z,4.11
2022-12-31T04:54:51.530Z,4.11
2022-12-31T04:57:18.528Z,4.15
2022-12-31T04:59:45.558Z,4.20
2022-12-31T05:02:12.796Z,4.22
2022-12-31T05:04:40.001Z,4.23
2022-12-31T05:07:07.017Z,4.21
2022-12-31T05:09:33.995Z,4.17
2022-12-31T05:12:01.140Z,4.16
2022-12-31T05:14:28.140Z,4.18
2022-12-31T05:16:55.328Z,4.19
2022-12-31T05:19:22.443Z,4.22
2022-12-31T05:22:09.391Z,4.26
2022-12-31T05:24:36.537Z,4.32
2022-12-31T05:27:03.891Z,4.28
2022-12-31T05:29:30.927Z,4.15
2022-12-31T05:31:58.010Z,4.01
2022-12-31T05:34:24.940Z,3.94
2022-12-31T05:36:51.953Z,3.93
2022-12-31T05:39:18.999Z,3.92
2022-12-31T05:41:46.011Z,3.90
2022-12-31T05:44:13.212Z,3.89
2022-12-31T05:46:40.184Z,3.88
2022-12-31T05:49:07.210Z,3.86
2022-12-31T05:51:34.349Z,3.84
2022-12-31T05:54:01.416Z,3.82
2022-12-31T05:56:28.398Z,3.81
2022-12-31T05:58:55.621Z,3.80
2022-12-31T06:01:22.729Z,3.77
2022-12-31T06:03:49.766Z,3.73
2022-12-31T06:06:16.843Z,3.69
2022-12-31T06:08:43.863Z,3.64
2022-12-31T06:11:10.958Z,3.61
2022-12-31T06:13:37.953Z,3.64
2022-12-31T06:16:09.741Z,3.67
2022-12-31T06:18:37.182Z,3.69
2022-12-31T06:21:04.605Z,3.69
2022-12-31T06:23:31.773Z,3.73
2022-12-31T06:26:04.899Z,3.77
2022-12-31T06:28:31.860Z,3.81
2022-12-31T06:31:06.324Z,3.87
2022-12-31T06:33:34.109Z,3.97
2022-12-31T06:36:07.051Z,4.07
2022-12-31T06:38:37.003Z,4.07
2022-12-31T06:41:05.316Z,4.10
2022-12-31T06:43:32.419Z,4.12
2022-12-31T06:46:03.830Z,4.15
2022-12-31T06:48:30.979Z,4.21
2022-12-31T06:51:03.027Z,4.23
2022-12-31T06:53:30.029Z,4.28
2022-12-31T06:56:05.599Z,4.37
2022-12-31T06:58:33.224Z,4.43
2022-12-31T07:01:45.619Z,4.49
2022-12-31T07:04:58.488Z,4.58
2022-12-31T07:07:57.554Z,4.63
2022-12-31T07:10:50.146Z,4.68
2022-12-31T07:14:14.051Z,4.73
2022-12-31T07:17:11.084Z,4.78
2022-12-31T07:20:11.408Z,4.81
2022-12-31T07:22:40.987Z,4.86
2022-12-31T07:25:13.390Z,4.92
2022-12-31T07:27:51.473Z,5.00
2022-12-31T07:30:23.436Z,5.07
2022-12-31T07:33:31.736Z,5.25
2022-12-31T07:36:27.947Z,5.40
2022-12-31T07:39:15.036Z,5.50
2022-12-31T07:42:03.032Z,5.57
2022-12-31T07:45:15.144Z,5.71
2022-12-31T07:47:42.616Z,5.83
2022-12-31T07:50:18.202Z,5.98
2022-12-31T07:52:45.871Z,6.11
2022-12-31T07:55:13.186Z,6.25
2022-12-31T07:58:06.451Z,6.37
2022-12-31T08:00:33.928Z,6.44
2022-12-31T08:03:34.259Z,6.52
2022-12-31T08:06:44.681Z,6.62
2022-12-31T08:09:31.803Z,6.66
2022-12-31T08:12:01.193Z,6.75
2022-12-31T08:14:29.376Z,6.85
2022-12-31T08:16:57.533Z,6.94
2022-12-31T08:19:28.611Z,7.04
2022-12-31T08:22:47.057Z,7.10
2022-12-31T08:25:23.079Z,7.20
2022-12-31T08:28:42.305Z,7.35
2022-12-31T08:31:18.092Z,7.43
2022-12-31T08:34:05.757Z,7.41
2022-12-31T08:36:44.097Z,7.50
2022-12-31T08:39:51.010Z,7.57
2022-12-31T08:42:45.036Z,7.56
2022-12-31T08:45:38.056Z,7.57
2022-12-31T08:48:36.476Z,7.61
2022-12-31T08:51:03.813Z,7.69
2022-12-31T08:53:35.133Z,7.77
2022-12-31T08:56:15.595Z,7.87
2022-12-31T08:59:23.798Z,7.98
2022-12-31T09:02:48.069Z,7.98
2022-12-31T09:05:24.775Z,8.04
2022-12-31T09:08:29.124Z,8.12
2022-12-31T09:11:45.968Z,8.20
2022-12-31T09:14:49.594Z,8.26
2022-12-31T09:17:44.154Z,8.29
2022-12-31T09:20:42.423Z,8.38
2022-12-31T09:23:11.492Z,8.45
2022-12-31T09:26:11.294Z,8.52
2022-12-31T09:29:43.454Z,8.61
2022-12-31T09:32:55.328Z,8.69
2022-12-31T09:35:54.102Z,8.74
2022-12-31T09:38:35.969Z,8.82
2022-12-31T09:41:14.717Z,8.92
2022-12-31T09:44:46.617Z,9.02
2022-12-31T09:48:21.415Z,9.23
2022-12-31T09:51:04.448Z,9.42
2022-12-31T09:54:16.428Z,9.63
2022-12-31T09:56:59.266Z,9.75
2022-12-31T09:59:54.534Z,9.84
2022-12-31T10:02:43.754Z,9.94
2022-12-31T10:05:44.466Z,10.09
2022-12-31T10:08:43.608Z,10.26
2022-12-31T10:11:41.188Z,10.34
2022-12-31T10:14:45.303Z,10.51
2022-12-31T10:17:47.206Z,10.66
2022-12-31T10:20:56.289Z,10.79
2022-12-31T10:24:05.073Z,10.84
2022-12-31T10:27:27.469Z,10.98
2022-12-31T10:30:24.815Z,11.19
2022-12-31T10:33:19.560Z,11.30
2022-12-31T10:35:57.453Z,11.47
2022-12-31T10:39:24.647Z,11.73
2022-12-31T10:42:19.979Z,11.84
2022-12-31T10:45:38.114Z,11.99
2022-12-31T10:48:46.349Z,12.05
2022-12-31T10:51:58.342Z,12.21
2022-12-31T10:55:07.049Z,12.44
2022-12-31T10:58:27.523Z,12.67
2022-12-31T11:01:18.024Z,12.87
2022-12-31T11:04:39.963Z,12.93
2022-12-31T11:07:42.519Z,13.03
2022-12-31T11:10:50.154Z,13.21
2022-12-31T11:13:53.572Z,13.40
2022-12-31T11:51:31.385Z,15.36
2022-12-31T12:00:23.277Z,15.82
2022-12-31T12:02:59.393Z,15.89
2022-12-31T12:05:27.089Z,15.91
2022-12-31T12:07:54.776Z,15.98
2022-12-31T12:10:36.077Z,16.02
2022-12-31T12:13:22.859Z,16.12
2022-12-31T12:15:53.726Z,16.18
2022-12-31T12:18:49.666Z,16.30
2022-12-31T12:21:21.866Z,16.41
2022-12-31T12:24:01.132Z,16.50
2022-12-31T12:26:34.414Z,16.63
2022-12-31T12:29:19.512Z,16.69
2022-12-31T12:32:21.088Z,16.81
2022-12-31T12:34:50.055Z,16.92
2022-12-31T12:37:35.586Z,16.90
2022-12-31T12:40:31.408Z,16.92
2022-12-31T12:43:01.487Z,16.89
2022-12-31T12:45:38.443Z,16.84
2022-12-31T12:48:34.791Z,16.92
2022-12-31T12:51:06.670Z,17.05
2022-12-31T12:54:25.849Z,17.15
2022-12-31T12:57:43.862Z,17.29
2022-12-31T13:00:21.571Z,17.40
2022-12-31T13:04:14.691Z,17.39
2022-12-31T13:07:19.260Z,17.50
2022-12-31T13:10:15.292Z,17.55
2022-12-31T13:15:57.908Z,17.62
2022-12-31T13:19:07.723Z,17.74
2022-12-31T13:22:07.516Z,17.88
2022-12-31T13:25:05.711Z,17.97
2022-12-31T13:27:39.791Z,18.07
2022-12-31T13:30:31.315Z,18.14
2022-12-31T13:33:20.613Z,18.22
2022-12-31T13:36:08.548Z,18.37
2022-12-31T13:38:40.898Z,18.47
2022-12-31T13:41:32.542Z,18.59
2022-12-31T13:44:18.579Z,18.71
2022-12-31T13:47:01.037Z,18.93
2022-12-31T13:49:43.840Z,19.82
2022-12-31T13:52:58.695Z,21.12
2022-12-31T13:55:39.027Z,22.34
2022-12-31T13:58:37.317Z,23.15
2022-12-31T14:01:37.235Z,23.86
2022-12-31T14:04:28.521Z,24.28
2022-12-31T14:07:21.886Z,24.56
2022-12-31T14:09:50.093Z,24.83
2022-12-31T14:12:55.802Z,24.97
2022-12-31T14:15:32.825Z,24.88
2022-12-31T14:18:48.863Z,24.87
2022-12-31T14:21:23.985Z,24.88
2022-12-31T14:24:16.121Z,24.73
2022-12-31T14:26:50.787Z,24.81
2022-12-31T14:29:37.509Z,24.82
2022-12-31T14:32:59.712Z,24.61
2022-12-31T14:35:56.798Z,24.40
2022-12-31T14:39:13.284Z,23.98
2022-12-31T14:42:34.630Z,23.21
2022-12-31T14:45:50.858Z,21.96
2022-12-31T14:48:53.638Z,20.57
2022-12-31T14:51:20.808Z,19.53
2022-12-31T14:53:55.333Z,18.82
2022-12-31T14:56:48.562Z,18.04
2022-12-31T14:59:32.290Z,17.42
2022-12-31T15:02:03.093Z,16.90
2022-12-31T15:04:48.276Z,16.46
2022-12-31T15:07:34.078Z,16.06
2022-12-31T15:10:19.437Z,15.64
2022-12-31T15:13:06.606Z,15.25
2022-12-31T15:16:14.390Z,14.90
2022-12-31T15:19:03.174Z,14.50
2022-12-31T15:21:58.507Z,14.21
2022-12-31T15:24:27.913Z,13.99
2022-12-31T15:26:58.714Z,13.78
2022-12-31T15:29:35.314Z,13.49
2022-12-31T15:32:15.581Z,13.15
2022-12-31T15:34:42.758Z,12.90
2022-12-31T15:37:33.208Z,12.68
2022-12-31T15:40:18.674Z,12.40
2022-12-31T15:42:51.084Z,12.16
2022-12-31T15:45:26.727Z,11.96
2022-12-31T15:47:59.667Z,11.77
2022-12-31T15:50:28.369Z,11.59
2022-12-31T15:52:57.965Z,11.46
2022-12-31T15:55:30.364Z,11.32
2022-12-31T15:58:03.500Z,11.16
2022-12-31T16:01:02.783Z,10.97
2022-12-31T16:03:32.627Z,10.80
2022-12-31T16:06:03.115Z,10.72
2022-12-31T16:08:35.899Z,10.66
2022-12-31T16:11:09.173Z,10.56
2022-12-31T16:13:41.547Z,10.46
2022-12-31T16:16:20.895Z,10.38
2022-12-31T16:18:50.803Z,10.30
2022-12-31T16:21:46.722Z,10.28
2022-12-31T16:24:37.468Z,10.19
2022-12-31T16:27:16.904Z,10.01
2022-12-31T16:29:55.666Z,9.88
2022-12-31T16:32:23.597Z,9.79
2022-12-31T16:34:50.646Z,9.74
2022-12-31T16:37:20.623Z,9.70
2022-12-31T16:40:16.568Z,9.75
2022-12-31T16:42:46.718Z,9.74
2022-12-31T16:45:35.950Z,9.97
2022-12-31T16:48:17.401Z,9.83
2022-12-31T16:50:51.088Z,9.76
2022-12-31T16:53:21.727Z,9.63
2022-12-31T16:55:56.054Z,9.48
2022-12-31T16:58:34.145Z,9.36
2022-12-31T17:01:26.994Z,9.28
2022-12-31T17:03:58.244Z,9.22
2022-12-31T17:06:28.333Z,9.20
2022-12-31T17:09:10.379Z,9.18
2022-12-31T17:11:50.624Z,9.05
2022-12-31T17:14:20.665Z,8.98
2022-12-31T17:17:08.313Z,8.96
2022-12-31T17:19:47.675Z,8.93
2022-12-31T17:22:37.236Z,8.83
2022-12-31T17:25:07.426Z,8.66
2022-12-31T17:27:36.232Z,8.54
2022-12-31T17:30:23.280Z,8.49
2022-12-31T17:32:52.247Z,8.45
2022-12-31T17:35:34.881Z,8.38
2022-12-31T17:38:39.668Z,8.38
2022-12-31T17:41:23.385Z,8.42
2022-12-31T17:43:57.732Z,8.51
2022-12-31T17:46:26.155Z,8.50
2022-12-31T17:48:57.847Z,8.47
2022-12-31T17:51:24.895Z,8.43
2022-12-31T17:53:52.104Z,8.40
2022-12-31T17:56:20.956Z,8.43
2022-12-31T17:58:51.843Z,8.33
2022-12-31T18:01:21.938Z,8.27
2022-12-31T18:03:49.567Z,8.28
2022-12-31T18:06:17.330Z,8.27
2022-12-31T18:08:44.526Z,8.26
2022-12-31T18:11:20.877Z,8.22
2022-12-31T18:13:48.876Z,8.17
2022-12-31T18:16:16.500Z,8.14
2022-12-31T18:18:45.679Z,8.11
2022-12-31T18:21:26.965Z,8.07
2022-12-31T18:26:23.606Z,7.98
2022-12-31T18:28:51.512Z,7.93
2022-12-31T18:31:24.567Z,7.94
2022-12-31T18:33:53.878Z,7.96
2022-12-31T18:36:22.295Z,8.01
2022-12-31T18:38:49.746Z,8.01
2022-12-31T18:41:22.542Z,8.01
2022-12-31T18:43:50.601Z,7.97
2022-12-31T18:46:20.499Z,7.93
2022-12-31T18:48:48.319Z,7.93
2022-12-31T18:51:18.638Z,7.91
2022-12-31T18:53:46.312Z,7.90
2022-12-31T18:56:16.229Z,7.88
2022-12-31T18:58:43.627Z,7.87
2022-12-31T19:01:32.562Z,7.86
2022-12-31T19:04:02.700Z,7.87
2022-12-31T19:06:31.052Z,7.89
2022-12-31T19:09:00.832Z,7.91
2022-12-31T19:11:28.266Z,7.93
2022-12-31T19:13:55.643Z,7.87
2022-12-31T19:16:22.694Z,7.80
2022-12-31T19:18:50.960Z,7.74
2022-12-31T19:21:20.584Z,7.65
2022-12-31T19:23:47.819Z,7.51
2022-12-31T19:26:20.825Z,7.37
2022-12-31T19:28:49.337Z,7.21
2022-12-31T19:31:17.349Z,7.13
2022-12-31T19:33:44.744Z,7.06
2022-12-31T19:36:16.728Z,7.03
2022-12-31T19:38:44.687Z,7.02
2022-12-31T19:41:20.264Z,7.01
2022-12-31T19:43:48.328Z,7.05
2022-12-31T19:46:17.677Z,7.08
2022-12-31T19:48:45.876Z,7.10
2022-12-31T19:51:16.913Z,7.17
2022-12-31T19:53:45.284Z,7.18
2022-12-31T19:56:20.544Z,7.17
2022-12-31T19:58:48.299Z,7.20
2022-12-31T20:01:23.946Z,7.24
2022-12-31T20:03:51.337Z,7.24
2022-12-31T20:06:19.419Z,7.23
2022-12-31T20:08:46.807Z,7.29
2022-12-31T20:11:19.047Z,7.39
2022-12-31T20:13:47.657Z,7.35
2022-12-31T20:16:18.055Z,7.38
2022-12-31T20:18:47.182Z,7.43
2022-12-31T20:21:20.564Z,7.29
2022-12-31T20:23:49.353Z,7.22
2022-12-31T20:26:16.915Z,7.19
2022-12-31T20:28:44.191Z,7.00
2022-12-31T20:31:16.867Z,6.88
2022-12-31T20:33:44.266Z,6.75
2022-12-31T20:36:13.784Z,6.61
2022-12-31T20:38:40.966Z,6.56
2022-12-31T20:41:16.548Z,6.56
2022-12-31T20:43:44.427Z,6.54
2022-12-31T20:46:19.747Z,6.53
2022-12-31T20:48:48.300Z,6.50
2022-12-31T20:51:17.218Z,6.34
2022-12-31T20:53:53.084Z,6.10
2022-12-31T20:56:20.090Z,5.98
2022-12-31T20:58:47.636Z,5.92
2022-12-31T21:01:15.715Z,5.88
2022-12-31T21:06:32.258Z,5.91
2022-12-31T21:09:01.418Z,5.91
2022-12-31T21:11:47.439Z,5.91
2022-12-31T21:14:15.146Z,5.92
2022-12-31T21:16:42.218Z,5.95
2022-12-31T21:19:10.141Z,5.99
2022-12-31T21:21:37.277Z,5.99
2022-12-31T21:24:04.958Z,6.01
2022-12-31T21:26:32.315Z,6.06
2022-12-31T21:28:59.412Z,6.29
2022-12-31T21:31:26.698Z,6.44
2022-12-31T21:33:53.961Z,6.27
2022-12-31T21:36:21.152Z,6.12
2022-12-31T21:38:48.208Z,6.00
2022-12-31T21:41:35.091Z,5.91
2022-12-31T21:44:02.950Z,5.88
2022-12-31T21:46:30.317Z,5.88
2022-12-31T21:48:59.456Z,5.85
2022-12-31T21:51:26.810Z,5.81
2022-12-31T21:53:54.194Z,5.71
2022-12-31T21:56:22.540Z,5.62
2022-12-31T21:59:13.937Z,5.58
2022-12-31T22:01:59.486Z,5.57
2022-12-31T22:07:13.836Z,5.57
2022-12-31T22:09:40.794Z,5.58
2022-12-31T22:12:08.021Z,5.59
2022-12-31T22:14:35.013Z,5.59
2022-12-31T22:17:01.971Z,5.62
2022-12-31T22:19:28.986Z,5.52
2022-12-31T22:21:56.015Z,5.47
2022-12-31T22:24:22.986Z,5.63
2022-12-31T22:26:51.085Z,5.82
2022-12-31T22:29:19.991Z,6.03
2022-12-31T22:31:46.976Z,5.88
2022-12-31T22:34:14.087Z,5.75
2022-12-31T22:36:41.107Z,5.67
2022-12-31T22:39:13.739Z,5.61
2022-12-31T22:42:00.728Z,5.44
2022-12-31T22:44:27.674Z,5.30
2022-12-31T22:46:56.367Z,5.00
2022-12-31T22:49:23.544Z,4.75
2022-12-31T22:51:56.859Z,4.63
2022-12-31T22:54:25.926Z,4.68
2022-12-31T22:56:53.115Z,4.64
2022-12-31T22:59:20.227Z,4.56
2022-12-31T23:01:47.597Z,4.69
2022-12-31T23:04:14.881Z,4.76
2022-12-31T23:06:44.791Z,4.88
2022-12-31T23:09:32.553Z,5.02
2022-12-31T23:12:00.076Z,4.97
2022-12-31T23:14:45.849Z,4.94
2022-12-31T23:17:38.870Z,4.80
2022-12-31T23:20:28.995Z,4.85
2022-12-31T23:23:11.702Z,4.85
2022-12-31T23:25:43.439Z,4.87
2022-12-31T23:28:23.616Z,4.86
2022-12-31T23:30:51.737Z,4.81
2022-12-31T23:33:21.925Z,4.77
2022-12-31T23:35:49.306Z,4.68
2022-12-31T23:38:17.902Z,4.57
2022-12-31T23:40:45.450Z,4.64
2022-12-31T23:43:22.607Z,4.58
2022-12-31T23:45:53.467Z,4.61
2022-12-31T23:48:20.623Z,4.65
2022-12-31T23:50:54.499Z,4.71
2022-12-31T23:53:23.338Z,4.77
2022-12-31T23:55:51.401Z,4.82
2022-12-31T23:58:18.503Z,5.01
